Time;durP1;ratioP1;P1;durP2;ratioP2;P2;SDS_P1;SDS_P2;PMS_P1;PMS_P2;Temp;Humidity;BMP_temperature;BMP_pressure;BME280_temperature;BME280_humidity;BME280_pressure;Samples;Min_cycle;Max_cycle;Signal;HPM_P1;HPM_P2
2023/01/10 00:00:52;;;;;;;10.23;2.42;;;5.40;99.90;;;;;;5024338;28;20029;-66
2023/01/10 00:03:18;;;;;;;10.95;2.45;;;5.40;99.90;;;;;;5023632;28;20026;-67
2023/01/10 00:05:44;;;;;;;14.65;1.70;;;5.50;99.90;;;;;;5025769;28;20033;-67
2023/01/10 00:08:14;;;;;;;11.85;2.47;;;5.50;99.90;;;;;;5022697;28;20033;-66
2023/01/10 00:10:40;;;;;;;11.13;2.38;;;5.40;99.90;;;;;;5028622;28;20030;-68
2023/01/10 00:13:24;;;;;;;9.82;1.90;;;5.30;99.90;;;;;;5019821;28;20033;-67
2023/01/10 00:15:54;;;;;;;17.05;2.45;;;5.30;99.90;;;;;;5019773;28;20046;-67
2023/01/10 00:18:21;;;;;;;12.43;1.95;;;5.40;99.90;;;;;;5016397;28;20028;-67
2023/01/10 00:20:48;;;;;;;9.82;1.75;;;5.30;99.90;;;;;;5027562;28;20057;-67
2023/01/10 00:23:14;;;;;;;11.35;2.30;;;5.30;99.90;;;;;;5026350;28;20397;-67
2023/01/10 00:25:41;;;;;;;18.92;2.03;;;5.30;99.90;;;;;;5027516;28;20064;-67
2023/01/10 00:28:18;;;;;;;12.63;1.55;;;5.30;99.90;;;;;;5023719;28;20482;-67
2023/01/10 00:30:54;;;;;;;12.43;2.50;;;5.30;99.90;;;;;;5023058;28;20101;-67
2023/01/10 00:33:20;;;;;;;19.13;2.17;;;5.40;99.90;;;;;;5020022;28;20108;-67
2023/01/10 00:35:47;;;;;;;14.23;2.20;;;5.30;99.90;;;;;;5025663;28;20084;-66
2023/01/10 00:38:13;;;;;;;16.00;2.10;;;5.20;99.90;;;;;;5023400;28;20028;-67
2023/01/10 00:40:39;;;;;;;12.95;2.53;;;5.10;99.90;;;;;;5025840;28;20318;-67
2023/01/10 00:45:49;;;;;;;11.40;1.33;;;5.00;99.90;;;;;;5027320;28;20136;-66
2023/01/10 00:48:16;;;;;;;12.38;2.35;;;4.90;99.90;;;;;;5026385;28;20032;-67
2023/01/10 00:50:42;;;;;;;19.75;2.00;;;4.90;99.90;;;;;;5028156;28;20104;-67
2023/01/10 00:53:08;;;;;;;20.52;2.50;;;5.10;99.90;;;;;;5022351;28;20030;-66
2023/01/10 00:55:35;;;;;;;12.45;2.13;;;5.00;99.90;;;;;;5019539;28;20540;-67
2023/01/10 00:58:01;;;;;;;13.93;1.98;;;5.10;99.90;;;;;;5027064;28;20029;-67
2023/01/10 01:00:27;;;;;;;14.57;2.00;;;5.00;99.90;;;;;;5025031;28;20059;-67
2023/01/10 01:02:53;;;;;;;12.02;2.15;;;5.00;99.90;;;;;;5026865;28;20036;-67
2023/01/10 01:05:19;;;;;;;15.43;2.95;;;4.90;99.90;;;;;;5024424;28;20030;-69
2023/01/10 01:07:48;;;;;;;10.98;2.72;;;4.80;99.90;;;;;;5031209;28;20029;-67
2023/01/10 01:10:26;;;;;;;13.75;1.73;;;4.70;99.90;;;;;;5023300;28;20033;-68
2023/01/10 01:12:57;;;;;;;11.98;2.35;;;4.60;99.90;;;;;;5026435;28;20034;-67
2023/01/10 01:15:23;;;;;;;9.55;1.90;;;4.50;99.90;;;;;;5025937;28;20474;-68
2023/01/10 01:17:49;;;;;;;12.23;2.33;;;4.50;99.90;;;;;;5028312;28;20029;-67
2023/01/10 01:20:15;;;;;;;10.98;1.92;;;4.40;99.90;;;;;;5028524;28;20377;-66
2023/01/10 01:22:41;;;;;;;10.85;2.15;;;4.40;99.90;;;;;;5031649;28;20026;-68
2023/01/10 01:25:07;;;;;;;12.65;2.10;;;4.40;99.90;;;;;;5027431;28;20485;-68
2023/01/10 01:27:37;;;;;;;20.02;2.38;;;4.50;99.90;;;;;;5026757;28;20488;-68
2023/01/10 01:30:05;;;;;;;7.97;2.33;;;4.40;99.90;;;;;;5028929;28;20493;-67
2023/01/10 01:32:31;;;;;;;18.58;2.60;;;4.50;99.90;;;;;;5027661;28;20029;-67
2023/01/10 01:34:57;;;;;;;12.80;2.33;;;4.60;99.90;;;;;;5027908;28;20483;-67
2023/01/10 01:37:22;;;;;;;16.10;2.28;;;4.60;99.90;;;;;;5022482;28;20026;-67
2023/01/10 01:39:48;;;;;;;13.45;2.42;;;4.60;99.90;;;;;;5023945;28;20037;-67
2023/01/10 01:42:28;;;;;;;19.45;2.63;;;4.50;99.90;;;;;;5028166;28;20096;-68
2023/01/10 01:45:09;;;;;;;15.45;2.63;;;4.50;99.90;;;;;;5019274;28;20037;-67
2023/01/10 01:48:01;;;;;;;9.07;1.65;;;4.60;99.90;;;;;;5017597;28;20028;-67
2023/01/10 01:50:43;;;;;;;;;;;4.70;99.90;;;;;;5022640;28;20492;-67
2023/01/10 01:53:26;;;;;;;12.75;1.95;;;4.70;99.90;;;;;;5027705;28;19996;-67
2023/01/10 01:55:54;;;;;;;11.07;2.40;;;4.60;99.90;;;;;;5023221;28;20029;-67
2023/01/10 01:58:27;;;;;;;10.20;2.08;;;4.60;99.90;;;;;;5021152;28;20022;-67
2023/01/10 02:00:53;;;;;;;22.60;2.78;;;4.50;99.90;;;;;;5024524;28;20060;-67
2023/01/10 02:03:19;;;;;;;19.90;2.80;;;4.50;99.90;;;;;;5028768;28;20497;-67
2023/01/10 02:05:45;;;;;;;18.85;2.53;;;4.40;99.90;;;;;;5029894;28;20503;-67
2023/01/10 02:08:12;;;;;;;14.75;2.08;;;4.50;99.90;;;;;;5024625;28;20462;-67
2023/01/10 02:10:52;;;;;;;14.32;2.05;;;4.60;99.90;;;;;;5021485;28;20393;-66
2023/01/10 02:13:22;;;;;;;20.17;2.20;;;4.60;99.90;;;;;;5019215;28;20034;-67
2023/01/10 02:15:48;;;;;;;7.72;1.75;;;4.70;99.90;;;;;;5019904;28;20156;-67
2023/01/10 02:18:14;;;;;;;15.68;1.67;;;4.70;99.90;;;;;;5021536;28;20034;-66
2023/01/10 02:20:58;;;;;;;18.83;2.13;;;4.70;99.90;;;;;;5020580;28;20109;-67
2023/01/10 02:24:02;;;;;;;11.55;1.98;;;4.70;99.90;;;;;;5020746;28;20503;-67
2023/01/10 02:27:12;;;;;;;12.27;1.50;;;4.70;99.90;;;;;;4966903;28;20038;-66
2023/01/10 02:29:46;;;;;;;13.85;1.77;;;4.70;99.90;;;;;;4926527;29;20032;-67
2023/01/10 02:32:30;;;;;;;11.15;1.58;;;4.80;99.90;;;;;;4923070;29;20035;-67
2023/01/10 02:35:30;;;;;;;15.60;2.03;;;4.90;99.90;;;;;;4926910;29;20499;-66
2023/01/10 02:38:05;;;;;;;17.38;2.53;;;5.10;99.90;;;;;;4922291;29;20542;-66
2023/01/10 02:41:05;;;;;;;17.70;2.20;;;5.20;99.90;;;;;;4920743;29;20043;-65
2023/01/10 02:43:36;;;;;;;14.45;2.03;;;5.20;99.90;;;;;;4922765;29;20102;-66
2023/01/10 02:46:07;;;;;;;16.02;1.80;;;5.30;99.90;;;;;;4918698;29;20028;-67
2023/01/10 02:48:33;;;;;;;10.10;1.42;;;5.30;99.90;;;;;;4925464;29;20036;-66
2023/01/10 02:51:21;;;;;;;9.07;1.65;;;5.30;99.90;;;;;;4919654;29;20043;-67
2023/01/10 02:54:01;;;;;;;16.30;2.65;;;5.30;99.90;;;;;;4924322;29;20036;-66
2023/01/10 02:56:57;;;;;;;15.57;1.80;;;5.30;99.90;;;;;;4921210;29;20055;-67
2023/01/10 02:59:28;;;;;;;12.60;2.03;;;5.30;99.90;;;;;;4924365;29;20039;-66
2023/01/10 03:02:26;;;;;;;14.23;1.87;;;5.20;99.90;;;;;;4953947;28;20046;-66
2023/01/10 03:05:22;;;;;;;9.95;2.47;;;5.20;99.90;;;;;;4973872;28;20507;-67
2023/01/10 03:08:08;;;;;;;16.75;1.90;;;5.20;99.90;;;;;;5025630;28;20028;-67
2023/01/10 03:10:57;;;;;;;16.08;2.22;;;5.20;99.90;;;;;;5017171;28;20104;-67
2023/01/10 03:13:41;;;;;;;14.98;2.00;;;5.20;99.90;;;;;;5021200;28;20026;-66
2023/01/10 03:16:11;;;;;;;12.23;1.65;;;5.20;99.90;;;;;;5016815;28;20088;-67
2023/01/10 03:18:49;;;;;;;15.27;2.92;;;5.20;99.90;;;;;;5024223;28;20057;-66
2023/01/10 03:21:17;;;;;;;14.23;2.10;;;5.20;99.90;;;;;;5027193;28;20041;-67
2023/01/10 03:23:46;;;;;;;14.75;3.08;;;5.30;99.90;;;;;;5019091;28;20037;-66
2023/01/10 03:26:14;;;;;;;17.80;2.53;;;5.40;99.90;;;;;;5017714;28;20025;-66
2023/01/10 03:28:44;;;;;;;15.07;2.17;;;5.50;99.90;;;;;;5022497;28;20033;-66
2023/01/10 03:31:16;;;;;;;14.35;2.50;;;5.60;99.90;;;;;;5026111;28;20056;-67
2023/01/10 03:33:42;;;;;;;11.40;2.17;;;5.80;99.90;;;;;;5024605;28;20034;-66
2023/01/10 03:36:20;;;;;;;14.05;2.30;;;5.90;99.90;;;;;;5025323;28;20033;-67
2023/01/10 03:38:52;;;;;;;14.95;1.88;;;6.00;99.90;;;;;;5021948;28;20058;-67
2023/01/10 03:41:44;;;;;;;20.92;2.03;;;5.90;99.90;;;;;;5017842;28;20080;-66
2023/01/10 03:47:36;;;;;;;16.10;2.08;;;5.80;99.90;;;;;;5019456;28;20559;-67
2023/01/10 03:50:07;;;;;;;14.60;1.48;;;5.80;99.90;;;;;;5023830;28;20026;-66
2023/01/10 03:52:38;;;;;;;18.75;2.00;;;5.90;99.90;;;;;;5020437;28;20490;-66
2023/01/10 03:55:05;;;;;;;13.25;2.22;;;5.90;99.90;;;;;;5014970;28;20040;-67
2023/01/10 03:57:31;;;;;;;21.90;3.15;;;6.00;99.90;;;;;;5017999;28;20108;-67
2023/01/10 03:59:58;;;;;;;13.95;2.00;;;6.10;99.90;;;;;;5017718;28;20451;-67
2023/01/10 04:02:29;;;;;;;13.63;2.40;;;6.10;99.90;;;;;;5024515;28;20021;-66
2023/01/10 04:04:56;;;;;;;13.52;2.17;;;6.20;99.90;;;;;;5025822;28;20039;-67
2023/01/10 04:07:22;;;;;;;17.42;2.67;;;6.20;99.90;;;;;;5022389;28;20485;-66
2023/01/10 04:09:48;;;;;;;9.40;3.15;;;6.10;99.90;;;;;;5021254;28;20022;-66
2023/01/10 04:12:14;;;;;;;12.05;1.77;;;6.10;99.90;;;;;;5023479;28;20035;-67
2023/01/10 04:14:40;;;;;;;18.27;2.65;;;6.00;99.90;;;;;;5022492;28;20096;-67
2023/01/10 04:17:06;;;;;;;17.10;2.30;;;6.00;99.90;;;;;;5019056;28;20033;-67
2023/01/10 04:19:32;;;;;;;14.20;2.03;;;5.90;99.90;;;;;;5022010;28;20036;-67
2023/01/10 04:21:58;;;;;;;15.13;2.33;;;5.80;99.90;;;;;;5021877;28;20131;-65
2023/01/10 04:24:24;;;;;;;12.57;2.60;;;5.60;99.90;;;;;;5024540;28;20116;-67
2023/01/10 04:26:50;;;;;;;15.35;2.60;;;5.40;99.90;;;;;;5023702;28;20030;-67
2023/01/10 04:29:16;;;;;;;13.88;2.35;;;5.30;99.90;;;;;;5026574;28;20060;-66
2023/01/10 04:31:42;;;;;;;11.35;2.03;;;5.10;99.90;;;;;;5021478;28;20064;-67
2023/01/10 04:34:08;;;;;;;14.60;2.30;;;5.00;99.90;;;;;;5028035;28;20370;-65
2023/01/10 04:36:35;;;;;;;21.55;2.47;;;4.90;99.90;;;;;;5018917;28;20079;-67
2023/01/10 04:39:02;;;;;;;10.68;1.70;;;5.00;99.90;;;;;;5031324;28;20037;-67
2023/01/10 04:41:27;;;;;;;19.30;2.95;;;5.10;99.90;;;;;;5027571;28;20397;-66
2023/01/10 04:43:53;;;;;;;13.23;1.77;;;5.10;99.90;;;;;;4983604;28;1213861;-68
2023/01/10 04:46:19;;;;;;;11.77;1.63;;;5.10;99.90;;;;;;5029209;28;20025;-66
2023/01/10 04:48:45;;;;;;;15.70;2.55;;;5.00;99.90;;;;;;5027438;28;20505;-67
2023/01/10 04:51:11;;;;;;;14.75;2.38;;;5.20;99.90;;;;;;5030387;28;20048;-66
2023/01/10 04:53:37;;;;;;;11.82;1.83;;;5.40;99.90;;;;;;5028660;28;20033;-68
2023/01/10 04:56:04;;;;;;;19.40;2.20;;;5.40;99.90;;;;;;5030304;28;20098;-66
2023/01/10 04:58:35;;;;;;;16.65;2.75;;;5.40;99.90;;;;;;5029776;28;20096;-67
2023/01/10 05:01:14;;;;;;;15.27;2.20;;;5.20;99.90;;;;;;5025605;28;20057;-66
2023/01/10 05:03:41;;;;;;;18.35;2.22;;;5.10;99.90;;;;;;5026243;28;20041;-67
2023/01/10 05:06:07;;;;;;;17.25;2.55;;;5.20;99.90;;;;;;5020688;28;20388;-67
2023/01/10 05:08:33;;;;;;;16.83;2.53;;;5.20;99.90;;;;;;5030262;28;20036;-66
2023/01/10 05:10:59;;;;;;;21.90;2.90;;;5.30;99.90;;;;;;5024182;28;20025;-66
2023/01/10 05:13:25;;;;;;;15.02;2.78;;;5.40;99.90;;;;;;5030306;28;20037;-67
2023/01/10 05:15:57;;;;;;;23.90;3.40;;;5.40;99.90;;;;;;5025928;28;20034;-66
2023/01/10 05:18:27;;;;;;;24.20;3.67;;;5.80;99.90;;;;;;5023436;28;20029;-68
2023/01/10 05:20:59;;;;;;;18.00;2.13;;;5.80;99.90;;;;;;5030151;28;20473;-66
2023/01/10 05:23:25;;;;;;;44.15;4.43;;;5.80;99.90;;;;;;5016944;28;20562;-66
2023/01/10 05:25:51;;;;;;;16.23;2.15;;;5.80;99.90;;;;;;5027516;28;20504;-66
2023/01/10 05:28:17;;;;;;;18.27;2.28;;;5.80;99.90;;;;;;5021089;28;20014;-66
2023/01/10 05:30:42;;;;;;;15.35;2.25;;;5.90;99.90;;;;;;5023580;28;20037;-67
2023/01/10 05:33:08;;;;;;;19.35;3.55;;;6.10;99.90;;;;;;5021971;28;20438;-67
2023/01/10 05:35:34;;;;;;;16.50;3.00;;;6.50;99.90;;;;;;5023521;28;20029;-67
2023/01/10 05:38:00;;;;;;;16.17;3.38;;;6.80;99.90;;;;;;5020013;28;20033;-68
2023/01/10 05:40:25;;;;;;;24.42;2.25;;;7.00;99.90;;;;;;5019844;28;20401;-67
2023/01/10 05:42:51;;;;;;;18.17;3.03;;;7.10;99.90;;;;;;5026369;28;20067;-67
2023/01/10 05:45:17;;;;;;;9.90;1.80;;;7.20;99.90;;;;;;5018527;28;20041;-67
2023/01/10 05:47:43;;;;;;;16.98;2.92;;;7.40;99.90;;;;;;5030165;28;20458;-68
2023/01/10 05:50:10;;;;;;;19.30;2.60;;;7.60;99.90;;;;;;5027560;28;20029;-67
2023/01/10 05:52:35;;;;;;;12.85;2.17;;;7.70;99.90;;;;;;5028618;28;20112;-67
2023/01/10 05:55:01;;;;;;;20.05;3.33;;;7.80;99.90;;;;;;5030328;28;20120;-67
2023/01/10 05:57:27;;;;;;;15.88;2.35;;;7.90;99.90;;;;;;5024511;28;20385;-67
2023/01/10 05:59:53;;;;;;;19.63;3.45;;;8.00;99.90;;;;;;5028171;28;20029;-68
2023/01/10 06:02:19;;;;;;;12.43;2.17;;;8.10;99.90;;;;;;5026176;28;20417;-67
2023/01/10 06:05:03;;;;;;;15.90;3.25;;;8.10;99.90;;;;;;5029233;28;20134;-68
2023/01/10 06:07:31;;;;;;;17.58;1.98;;;8.20;99.90;;;;;;5024390;28;20030;-67
2023/01/10 06:09:57;;;;;;;15.15;2.58;;;8.30;99.90;;;;;;5026584;28;20063;-68
2023/01/10 06:12:22;;;;;;;20.95;3.72;;;8.40;99.90;;;;;;5021013;28;20389;-68
2023/01/10 06:14:48;;;;;;;20.88;4.43;;;8.40;99.90;;;;;;5026725;28;20489;-68
2023/01/10 06:17:14;;;;;;;14.52;2.45;;;8.50;99.90;;;;;;5023941;28;20030;-68
2023/01/10 06:19:40;;;;;;;28.60;3.95;;;8.50;99.90;;;;;;5029364;28;20029;-68
2023/01/10 06:22:05;;;;;;;28.55;3.63;;;8.60;99.90;;;;;;5024773;28;20439;-67
2023/01/10 06:24:31;;;;;;;23.90;3.20;;;8.60;99.90;;;;;;5028608;28;20471;-67
2023/01/10 06:26:57;;;;;;;22.65;3.00;;;8.60;99.90;;;;;;5022654;28;20033;-68
2023/01/10 06:29:23;;;;;;;21.02;2.95;;;8.60;99.90;;;;;;5026721;28;20025;-67
2023/01/10 06:31:48;;;;;;;21.67;3.65;;;8.70;99.90;;;;;;5024448;28;20018;-68
2023/01/10 06:34:15;;;;;;;25.55;4.00;;;8.70;99.90;;;;;;5026641;28;20029;-67
2023/01/10 06:36:46;;;;;;;28.33;3.83;;;8.70;99.90;;;;;;5024855;28;20065;-70
2023/01/10 06:39:11;;;;;;;20.92;3.25;;;8.60;99.90;;;;;;5025280;28;20064;-73
2023/01/10 06:41:37;;;;;;;27.58;4.32;;;8.60;99.90;;;;;;5028107;28;20033;-73
2023/01/10 06:44:03;;;;;;;28.25;4.00;;;8.60;99.90;;;;;;5023265;28;20485;-73
2023/01/10 06:46:29;;;;;;;26.05;3.33;;;8.60;99.90;;;;;;5027387;28;20432;-74
2023/01/10 06:48:55;;;;;;;31.05;3.83;;;8.60;99.90;;;;;;5026961;28;20025;-70
2023/01/10 06:51:20;;;;;;;21.50;3.65;;;8.70;99.90;;;;;;5028204;28;20112;-73
2023/01/10 06:53:46;;;;;;;23.92;3.30;;;8.70;99.90;;;;;;5029799;28;20113;-72
2023/01/10 06:56:12;;;;;;;23.45;3.60;;;8.70;99.90;;;;;;5025643;28;20037;-72
2023/01/10 06:58:38;;;;;;;30.02;3.20;;;8.70;99.90;;;;;;5027655;28;20017;-72
2023/01/10 07:01:13;;;;;;;28.00;4.25;;;8.70;99.90;;;;;;5022403;28;20092;-74
2023/01/10 07:03:40;;;;;;;27.08;3.75;;;8.70;99.90;;;;;;5015274;28;20193;-73
2023/01/10 07:06:09;;;;;;;19.48;3.60;;;8.70;99.90;;;;;;5019964;28;20034;-73
2023/01/10 07:08:39;;;;;;;15.57;2.40;;;8.70;99.90;;;;;;5014946;28;20095;-73
2023/01/10 07:11:07;;;;;;;25.52;3.78;;;8.60;99.90;;;;;;5012377;28;20025;-72
2023/01/10 07:13:33;;;;;;;22.10;2.55;;;8.60;99.90;;;;;;5029587;28;20087;-74
2023/01/10 07:16:07;;;;;;;27.38;3.13;;;8.50;99.90;;;;;;5025284;28;20057;-73
2023/01/10 07:18:34;;;;;;;21.15;2.78;;;8.50;99.90;;;;;;5011716;28;20042;-73
2023/01/10 07:21:00;;;;;;;18.10;3.08;;;8.40;99.90;;;;;;5022809;28;20120;-74
2023/01/10 07:23:26;;;;;;;16.58;2.42;;;8.30;99.90;;;;;;5026459;28;20116;-73
2023/01/10 07:25:52;;;;;;;17.85;2.60;;;8.30;99.90;;;;;;5019604;28;20064;-72
2023/01/10 07:28:18;;;;;;;13.70;2.20;;;8.20;99.90;;;;;;5012935;28;20018;-73
2023/01/10 07:30:43;;;;;;;9.07;1.52;;;8.20;99.90;;;;;;5014421;28;20034;-72
2023/01/10 07:33:09;;;;;;;17.10;2.70;;;8.20;99.90;;;;;;5018581;28;20106;-74
2023/01/10 07:35:35;;;;;;;16.40;2.08;;;8.20;99.90;;;;;;5015082;28;20057;-73
2023/01/10 07:38:02;;;;;;;12.27;2.28;;;8.20;99.90;;;;;;5012336;28;20157;-73
2023/01/10 07:40:28;;;;;;;10.93;2.20;;;8.10;99.90;;;;;;5024624;28;20029;-73
2023/01/10 07:43:01;;;;;;;19.15;1.90;;;8.00;99.90;;;;;;5017519;28;20410;-74
2023/01/10 07:45:29;;;;;;;12.15;2.05;;;8.00;99.90;;;;;;5022861;28;20041;-77
2023/01/10 07:47:59;;;;;;;18.10;2.40;;;8.00;99.90;;;;;;5027719;28;20483;-76
2023/01/10 07:50:27;;;;;;;13.52;2.42;;;8.00;99.90;;;;;;5025804;28;20053;-76
2023/01/10 07:52:54;;;;;;;14.35;1.95;;;8.00;99.90;;;;;;5028588;28;20037;-75
2023/01/10 07:55:20;;;;;;;13.45;2.53;;;8.00;99.90;;;;;;5027201;28;20045;-77
2023/01/10 07:57:46;;;;;;;20.40;2.03;;;8.00;99.90;;;;;;5029213;28;20033;-77
2023/01/10 08:00:12;;;;;;;18.58;2.55;;;8.00;99.90;;;;;;5027393;28;20417;-77
2023/01/10 08:02:38;;;;;;;11.05;2.92;;;8.00;99.90;;;;;;5031584;28;20052;-76
2023/01/10 08:05:04;;;;;;;17.20;1.90;;;8.00;99.90;;;;;;5030539;28;20468;-75
2023/01/10 08:07:31;;;;;;;19.35;2.67;;;8.00;99.90;;;;;;5028717;28;20033;-78
2023/01/10 08:09:57;;;;;;;19.50;3.25;;;8.00;99.90;;;;;;5030280;28;20031;-78
2023/01/10 08:12:23;;;;;;;19.40;2.20;;;8.00;99.90;;;;;;5027074;28;20079;-74
2023/01/10 08:14:50;;;;;;;17.05;2.30;;;8.00;99.90;;;;;;5018938;28;20578;-77
2023/01/10 08:17:16;;;;;;;12.02;1.67;;;7.90;99.90;;;;;;5016927;28;20473;-77
2023/01/10 08:19:42;;;;;;;18.73;2.60;;;8.00;99.90;;;;;;5030145;28;20029;-77
2023/01/10 08:22:08;;;;;;;16.48;2.92;;;8.00;99.90;;;;;;5024095;28;20033;-77
2023/01/10 08:24:34;;;;;;;20.60;2.72;;;8.00;99.90;;;;;;5029336;28;20086;-79
2023/01/10 08:27:01;;;;;;;11.82;1.65;;;8.10;99.90;;;;;;5021808;28;20517;-76
2023/01/10 08:29:27;;;;;;;20.20;2.42;;;8.10;99.90;;;;;;5016163;28;20026;-75
2023/01/10 08:31:53;;;;;;;17.52;1.95;;;8.10;99.90;;;;;;5021440;28;20091;-76
2023/01/10 08:34:19;;;;;;;15.63;2.13;;;8.00;99.90;;;;;;5027454;28;20492;-77
2023/01/10 08:36:48;;;;;;;14.50;1.75;;;8.00;99.90;;;;;;5028297;28;20112;-80
2023/01/10 08:39:14;;;;;;;13.23;2.03;;;8.00;99.90;;;;;;5026311;28;20022;-78
2023/01/10 08:41:40;;;;;;;16.77;2.05;;;8.00;99.90;;;;;;5027729;28;20030;-78
2023/01/10 08:44:11;;;;;;;12.38;1.85;;;8.00;99.90;;;;;;5021415;28;20191;-75
2023/01/10 08:46:37;;;;;;;15.15;2.13;;;8.00;99.90;;;;;;5025687;28;20026;-75
2023/01/10 08:49:02;;;;;;;11.07;1.30;;;8.10;99.90;;;;;;5027100;28;20032;-76
2023/01/10 08:51:28;;;;;;;8.98;1.48;;;8.00;99.90;;;;;;5022797;28;20030;-76
2023/01/10 08:53:54;;;;;;;6.97;1.15;;;7.90;99.90;;;;;;5024467;28;20051;-79
2023/01/10 08:56:20;;;;;;;7.88;1.63;;;7.80;99.90;;;;;;5026797;28;20045;-79
2023/01/10 08:58:46;;;;;;;15.02;1.27;;;7.70;99.90;;;;;;5020018;28;20087;-79
2023/01/10 09:01:13;;;;;;;8.73;1.10;;;7.80;99.90;;;;;;5020263;28;20044;-79
2023/01/10 09:03:39;;;;;;;11.55;0.85;;;7.80;99.90;;;;;;5026773;28;20033;-78
2023/01/10 09:06:06;;;;;;;9.25;2.00;;;7.70;99.90;;;;;;5022333;28;20041;-82
2023/01/10 09:08:31;;;;;;;7.70;1.90;;;7.70;99.90;;;;;;5031081;28;20120;-81
2023/01/10 09:11:00;;;;;;;16.20;1.95;;;7.70;99.90;;;;;;5027529;28;20033;-69
2023/01/10 09:13:30;;;;;;;16.20;1.88;;;7.80;99.90;;;;;;5025813;28;21151;-83
2023/01/10 09:15:57;;;;;;;4.70;1.73;;;7.80;99.90;;;;;;5031518;28;20075;-83
2023/01/10 09:18:24;;;;;;;9.20;1.05;;;7.80;99.90;;;;;;5029115;28;20032;-82
2023/01/10 09:20:50;;;;;;;4.72;0.90;;;7.80;99.90;;;;;;5032055;28;20370;-80
2023/01/10 09:23:19;;;;;;;7.35;1.00;;;7.90;99.90;;;;;;5026804;28;20033;-79
2023/01/10 09:25:46;;;;;;;3.85;0.70;;;8.00;99.90;;;;;;5030886;28;20026;-80
2023/01/10 09:28:12;;;;;;;8.93;1.63;;;8.10;99.90;;;;;;5018244;28;20099;-79
2023/01/10 09:30:38;;;;;;;8.02;0.93;;;8.10;99.90;;;;;;5024816;28;20065;-81
2023/01/10 09:33:05;;;;;;;8.90;0.90;;;8.20;99.90;;;;;;5030051;28;20084;-81
2023/01/10 09:35:31;;;;;;;6.65;1.67;;;8.10;99.90;;;;;;5023095;28;20144;-78
2023/01/10 09:38:00;;;;;;;4.55;0.57;;;8.20;99.90;;;;;;5021665;28;20129;-78
2023/01/10 09:41:01;;;;;;;4.53;1.00;;;8.30;99.90;;;;;;5025897;28;20105;-79
2023/01/10 09:44:06;;;;;;;6.72;1.45;;;8.30;99.90;;;;;;5026385;28;20072;-81
2023/01/10 09:47:14;;;;;;;10.50;1.38;;;8.30;99.90;;;;;;5021837;28;20048;-83
2023/01/10 09:49:59;;;;;;;7.72;1.15;;;8.30;99.90;;;;;;4969752;28;20039;-81
2023/01/10 09:52:34;;;;;;;12.82;1.55;;;8.40;99.90;;;;;;4963151;28;20403;-79
2023/01/10 09:55:25;;;;;;;8.48;1.27;;;8.40;99.90;;;;;;4968772;28;20074;-82
2023/01/10 09:57:53;;;;;;;10.32;1.00;;;8.40;99.90;;;;;;4958320;28;20043;-82
2023/01/10 10:00:24;;;;;;;8.93;1.90;;;8.40;99.90;;;;;;4970119;28;20129;-85
2023/01/10 10:02:52;;;;;;;11.82;1.27;;;8.40;99.90;;;;;;4961161;28;20603;-83
2023/01/10 10:05:24;;;;;;;11.32;1.13;;;8.40;99.90;;;;;;4965517;28;20126;-81
2023/01/10 10:08:15;;;;;;;16.38;2.38;;;8.40;99.90;;;;;;4957678;28;20035;-85
2023/01/10 10:10:50;;;;;;;8.00;1.52;;;8.50;99.90;;;;;;4958885;28;20139;-82
2023/01/10 10:13:58;;;;;;;18.85;2.00;;;8.50;99.90;;;;;;4962861;28;20097;-85
2023/01/10 10:16:52;;;;;;;16.80;2.08;;;8.50;99.90;;;;;;4968376;28;20049;-83
2023/01/10 10:19:43;;;;;;;17.10;1.98;;;8.60;99.90;;;;;;4963898;28;20045;-82
2023/01/10 10:22:39;;;;;;;20.65;1.65;;;8.60;99.90;;;;;;4962909;28;20050;-81
2023/01/10 10:25:30;;;;;;;13.35;2.20;;;8.60;99.90;;;;;;4935225;28;20051;-79
2023/01/10 10:28:06;;;;;;;9.85;2.17;;;8.60;99.90;;;;;;5031934;28;20030;-80
2023/01/10 10:30:40;;;;;;;16.73;1.98;;;8.70;99.90;;;;;;5031198;28;20037;-82
2023/01/10 10:33:17;;;;;;;16.52;2.70;;;8.70;99.90;;;;;;5035801;28;20068;-83
2023/01/10 10:36:00;;;;;;;19.23;1.95;;;8.80;99.90;;;;;;5028306;28;20041;-84
2023/01/10 10:38:30;;;;;;;10.27;2.58;;;8.80;99.90;;;;;;5029625;28;20120;-82
2023/01/10 10:40:58;;;;;;;18.95;3.35;;;8.80;99.90;;;;;;5027887;28;20049;-78
2023/01/10 10:43:36;;;;;;;13.95;1.60;;;8.90;99.90;;;;;;5028764;28;20087;-78
2023/01/10 10:46:09;;;;;;;16.08;1.92;;;8.90;99.90;;;;;;5029992;28;20405;-80
2023/01/10 10:49:03;;;;;;;14.13;1.95;;;8.90;99.90;;;;;;5027828;28;20135;-79
2023/01/10 10:51:40;;;;;;;20.27;1.95;;;9.00;99.90;;;;;;5024796;28;20021;-81
2023/01/10 10:54:10;;;;;;;17.17;1.90;;;9.00;99.90;;;;;;5031368;28;20029;-79
2023/01/10 10:56:36;;;;;;;19.70;3.10;;;9.10;99.90;;;;;;5034422;28;20208;-79
2023/01/10 10:59:04;;;;;;;13.98;2.67;;;9.20;99.90;;;;;;5028789;28;20120;-79
2023/01/10 11:01:29;;;;;;;23.58;2.55;;;9.20;99.90;;;;;;5028011;28;20465;-83
2023/01/10 11:04:00;;;;;;;19.27;2.28;;;9.30;99.90;;;;;;5031178;28;20044;-80
2023/01/10 11:06:28;;;;;;;16.58;2.33;;;9.40;99.90;;;;;;5024101;28;20486;-80
2023/01/10 11:09:00;;;;;;;12.55;2.10;;;9.50;99.90;;;;;;5028819;28;20037;-81
2023/01/10 11:11:26;;;;;;;;;;;9.50;99.90;;;;;;5028518;28;21015;-80
2023/01/10 11:14:00;;;;;;;24.95;2.22;;;9.60;99.90;;;;;;5027242;28;19909;-78
2023/01/10 11:16:35;;;;;;;15.07;1.35;;;9.60;99.90;;;;;;5025471;28;20049;-80
2023/01/10 11:19:22;;;;;;;13.65;1.48;;;9.70;99.90;;;;;;5031541;28;20045;-83
2023/01/10 11:21:58;;;;;;;7.53;1.40;;;9.80;99.90;;;;;;5030869;28;20040;-80
2023/01/10 11:24:29;;;;;;;16.50;1.80;;;9.90;99.90;;;;;;5023231;28;20017;-80
2023/01/10 11:26:58;;;;;;;13.77;1.90;;;9.90;99.90;;;;;;5028223;28;20438;-82
2023/01/10 11:29:37;;;;;;;7.57;0.95;;;9.90;99.90;;;;;;5030766;28;20033;-81
2023/01/10 11:32:18;;;;;;;12.63;2.63;;;10.00;99.90;;;;;;5025087;28;20613;-82
2023/01/10 11:35:00;;;;;;;11.45;1.50;;;10.10;99.90;;;;;;5026300;28;20100;-84
2023/01/10 11:37:35;;;;;;;11.90;1.00;;;10.20;99.90;;;;;;5018568;28;20437;-80
2023/01/10 11:40:22;;;;;;;11.85;1.45;;;10.20;99.90;;;;;;5030767;28;20499;-83
2023/01/10 11:42:50;;;;;;;18.58;1.38;;;10.30;99.90;;;;;;5023271;28;20033;-81
2023/01/10 11:45:16;;;;;;;13.32;1.20;;;10.30;99.90;;;;;;5027900;28;20050;-80
2023/01/10 11:47:46;;;;;;;15.35;1.95;;;10.30;99.90;;;;;;5018709;28;20488;-80
2023/01/10 11:50:19;;;;;;;15.63;1.83;;;10.40;99.90;;;;;;5012256;28;20029;-80
2023/01/10 11:52:46;;;;;;;21.08;3.65;;;10.40;99.90;;;;;;5015570;28;20474;-77
2023/01/10 11:55:24;;;;;;;27.33;2.70;;;10.40;99.90;;;;;;5020105;28;20489;-77
2023/01/10 11:58:12;;;;;;;22.73;2.75;;;10.50;99.90;;;;;;5016814;28;20405;-79
2023/01/10 12:00:45;;;;;;;21.50;3.03;;;10.60;99.90;;;;;;5019619;28;20096;-80
2023/01/10 12:03:25;;;;;;;18.75;2.35;;;10.70;99.90;;;;;;5022521;28;20107;-79
2023/01/10 12:05:55;;;;;;;23.13;2.97;;;10.70;99.90;;;;;;5023221;28;20033;-80
2023/01/10 12:08:32;;;;;;;20.42;2.45;;;10.80;99.90;;;;;;5018824;28;20032;-79
2023/01/10 12:11:22;;;;;;;23.38;3.47;;;10.90;99.90;;;;;;5021635;28;20026;-79
2023/01/10 12:13:51;;;;;;;25.23;2.53;;;10.90;99.90;;;;;;5024368;28;20073;-77
2023/01/10 12:16:22;;;;;;;19.02;2.67;;;10.90;99.90;;;;;;5024392;28;20045;-75
2023/01/10 12:18:51;;;;;;;25.30;2.95;;;11.00;99.90;;;;;;5017682;28;20109;-76
2023/01/10 12:21:33;;;;;;;26.50;3.42;;;11.00;99.90;;;;;;5013756;28;20026;-75
2023/01/10 12:24:05;;;;;;;34.97;5.60;;;11.10;99.90;;;;;;5027628;28;20062;-74
2023/01/10 12:26:32;;;;;;;33.72;4.00;;;11.10;99.90;;;;;;5018771;28;20497;-73
2023/01/10 12:29:07;;;;;;;27.65;4.22;;;11.10;99.90;;;;;;5022991;28;20500;-74
2023/01/10 12:31:35;;;;;;;26.75;3.70;;;11.20;99.90;;;;;;5018894;28;20105;-72
2023/01/10 12:34:13;;;;;;;28.42;4.15;;;11.20;99.90;;;;;;5015955;28;20049;-74
2023/01/10 12:36:59;;;;;;;31.83;4.45;;;11.30;99.90;;;;;;5018877;28;20042;-75
2023/01/10 12:39:33;;;;;;;32.63;4.53;;;11.30;99.90;;;;;;5025352;28;20018;-74
2023/01/10 12:45:25;;;;;;;33.58;6.15;;;11.40;99.90;;;;;;5019837;28;20140;-73
2023/01/10 12:48:03;;;;;;;30.67;5.07;;;11.40;99.90;;;;;;5023689;28;20045;-74
2023/01/10 12:50:35;;;;;;;23.20;3.53;;;11.40;99.90;;;;;;5022791;28;20022;-73
2023/01/10 12:53:27;;;;;;;40.05;6.07;;;11.60;99.90;;;;;;5026169;28;20025;-73
2023/01/10 12:55:57;;;;;;;32.00;4.47;;;11.60;99.90;;;;;;5028805;28;20036;-74
2023/01/10 12:58:43;;;;;;;45.33;4.32;;;11.70;99.90;;;;;;5026895;28;20025;-73
2023/01/10 13:01:20;;;;;;;33.58;4.53;;;11.70;99.90;;;;;;5021478;28;20026;-73
2023/01/10 13:03:54;;;;;;;25.80;4.97;;;11.80;99.90;;;;;;5029279;28;20481;-72
2023/01/10 13:06:46;;;;;;;51.30;5.15;;;11.80;99.90;;;;;;5023611;28;20207;-73
2023/01/10 13:09:17;;;;;;;26.90;4.60;;;11.90;99.90;;;;;;5022198;28;20393;-72
2023/01/10 13:11:48;;;;;;;30.80;5.68;;;12.00;99.90;;;;;;5023644;28;20029;-72
2023/01/10 13:14:18;;;;;;;28.58;6.10;;;12.00;99.90;;;;;;5025878;28;20470;-73
2023/01/10 13:16:53;;;;;;;30.23;4.68;;;12.00;99.90;;;;;;5027045;28;20106;-73
2023/01/10 13:19:25;;;;;;;40.78;5.45;;;12.10;99.90;;;;;;5019332;28;20414;-72